LATI/TIA METAR and TAF weather

Enter ICAO airport designator
Station Type Date Time Source
LATI METAR 2020/06/03 15:50 UTC NOAA

LATI 031550Z 33005KT 300V010 CAVOK 23/09 Q1009 NOSIG


Station Type Date Time Source
LATI Decoded METAR 2020/06/03 15:50 UTC NOAA

Tirana, Albania (LATI) 41-20N 019-47E 90M
Jun 03, 2020 - 11:50 AM EDT / 2020.06.03 1550 UTC
Wind: from the NNW (330 degrees) at 6 MPH (5 KT) (direction variable):0
Visibility: greater than 7 mile(s):0
Temperature: 73 F (23 C)
Dew Point: 48 F (9 C)
Relative Humidity: 40%
Pressure (altimeter): 29.80 in. Hg (1009 hPa)
ob: LATI 031550Z 33005KT 300V010 CAVOK 23/09 Q1009 NOSIG
cycle: 16

Station Type Date Time Source
LATI TAF 2020/06/03 12:27 UTC NOAA

TAF TAF LATI 031100Z 0312/0412 32012KT 9999 FEW030TCU SCT080 TX28/0412Z TN12/0404Z
BECMG 0317/0319 VRB04KT CAVOK
TEMPO 0409/0412 24014KT

Example: see airport list